sensor_id;sensor_type;location;lat;lon;timestamp;P1;durP1;ratioP1;P2;durP2;ratioP2
487;SDS011;16586;48.976;9.584;2022-09-12T00:00:40;2.60;;;2.40;;
487;SDS011;16586;48.976;9.584;2022-09-12T00:03:07;2.75;;;2.55;;
487;SDS011;16586;48.976;9.584;2022-09-12T00:05:39;2.90;;;2.70;;
487;SDS011;16586;48.976;9.584;2022-09-12T00:08:06;2.80;;;2.60;;
487;SDS011;16586;48.976;9.584;2022-09-12T00:10:36;2.60;;;2.40;;
487;SDS011;16586;48.976;9.584;2022-09-12T00:13:04;2.60;;;2.42;;
487;SDS011;16586;48.976;9.584;2022-09-12T00:15:31;2.80;;;2.60;;
487;SDS011;16586;48.976;9.584;2022-09-12T00:18:02;2.73;;;2.53;;
487;SDS011;16586;48.976;9.584;2022-09-12T00:20:29;2.83;;;2.63;;
487;SDS011;16586;48.976;9.584;2022-09-12T00:22:57;2.90;;;2.70;;
487;SDS011;16586;48.976;9.584;2022-09-12T00:25:24;2.97;;;2.77;;
487;SDS011;16586;48.976;9.584;2022-09-12T00:27:54;2.90;;;2.70;;
487;SDS011;16586;48.976;9.584;2022-09-12T00:30:22;2.80;;;2.60;;
487;SDS011;16586;48.976;9.584;2022-09-12T00:32:49;3.13;;;2.92;;
487;SDS011;16586;48.976;9.584;2022-09-12T00:35:18;2.80;;;2.60;;
487;SDS011;16586;48.976;9.584;2022-09-12T00:37:45;2.60;;;2.40;;
487;SDS011;16586;48.976;9.584;2022-09-12T00:40:13;2.25;;;2.05;;
487;SDS011;16586;48.976;9.584;2022-09-12T00:42:41;2.77;;;2.57;;
487;SDS011;16586;48.976;9.584;2022-09-12T00:45:09;2.75;;;2.55;;
487;SDS011;16586;48.976;9.584;2022-09-12T00:47:48;3.03;;;2.83;;
487;SDS011;16586;48.976;9.584;2022-09-12T00:50:15;2.85;;;2.65;;
487;SDS011;16586;48.976;9.584;2022-09-12T00:52:44;2.70;;;2.50;;
487;SDS011;16586;48.976;9.584;2022-09-12T00:55:18;2.90;;;2.70;;
487;SDS011;16586;48.976;9.584;2022-09-12T00:57:49;4.00;;;2.75;;
487;SDS011;16586;48.976;9.584;2022-09-12T01:00:20;2.80;;;2.70;;
487;SDS011;16586;48.976;9.584;2022-09-12T01:02:49;2.80;;;2.60;;
487;SDS011;16586;48.976;9.584;2022-09-12T01:05:19;2.70;;;2.50;;
487;SDS011;16586;48.976;9.584;2022-09-12T01:07:47;2.60;;;2.40;;
487;SDS011;16586;48.976;9.584;2022-09-12T01:10:15;3.30;;;3.10;;
487;SDS011;16586;48.976;9.584;2022-09-12T01:12:44;2.60;;;2.40;;
487;SDS011;16586;48.976;9.584;2022-09-12T01:15:13;3.17;;;2.40;;
487;SDS011;16586;48.976;9.584;2022-09-12T01:17:49;2.88;;;2.67;;
487;SDS011;16586;48.976;9.584;2022-09-12T01:20:31;2.80;;;2.60;;
487;SDS011;16586;48.976;9.584;2022-09-12T01:26:45;3.10;;;2.70;;
487;SDS011;16586;48.976;9.584;2022-09-12T01:29:40;2.70;;;2.50;;
487;SDS011;16586;48.976;9.584;2022-09-12T01:32:27;2.67;;;2.47;;
487;SDS011;16586;48.976;9.584;2022-09-12T01:35:05;3.00;;;2.80;;
487;SDS011;16586;48.976;9.584;2022-09-12T01:37:38;2.60;;;2.40;;
487;SDS011;16586;48.976;9.584;2022-09-12T01:40:14;2.80;;;2.60;;
487;SDS011;16586;48.976;9.584;2022-09-12T01:42:49;2.70;;;2.50;;
487;SDS011;16586;48.976;9.584;2022-09-12T01:45:23;2.65;;;2.50;;
487;SDS011;16586;48.976;9.584;2022-09-12T01:47:57;2.70;;;2.50;;
487;SDS011;16586;48.976;9.584;2022-09-12T01:50:29;2.85;;;2.70;;
487;SDS011;16586;48.976;9.584;2022-09-12T01:52:59;2.90;;;2.70;;
487;SDS011;16586;48.976;9.584;2022-09-12T01:55:32;3.10;;;2.90;;
487;SDS011;16586;48.976;9.584;2022-09-12T01:58:03;2.80;;;2.60;;
487;SDS011;16586;48.976;9.584;2022-09-12T02:00:33;2.80;;;2.60;;
487;SDS011;16586;48.976;9.584;2022-09-12T02:03:07;3.10;;;2.90;;
487;SDS011;16586;48.976;9.584;2022-09-12T02:05:39;2.67;;;2.47;;
487;SDS011;16586;48.976;9.584;2022-09-12T02:08:12;3.00;;;2.80;;
487;SDS011;16586;48.976;9.584;2022-09-12T02:10:43;2.95;;;2.75;;
487;SDS011;16586;48.976;9.584;2022-09-12T02:13:17;4.20;;;3.60;;
487;SDS011;16586;48.976;9.584;2022-09-12T02:15:50;2.90;;;2.70;;
487;SDS011;16586;48.976;9.584;2022-09-12T02:18:21;5.97;;;2.90;;
487;SDS011;16586;48.976;9.584;2022-09-12T02:20:51;2.63;;;2.42;;
487;SDS011;16586;48.976;9.584;2022-09-12T02:23:22;2.80;;;2.60;;
487;SDS011;16586;48.976;9.584;2022-09-12T02:25:53;2.83;;;2.63;;
487;SDS011;16586;48.976;9.584;2022-09-12T02:28:23;3.00;;;2.80;;
487;SDS011;16586;48.976;9.584;2022-09-12T02:30:55;2.80;;;2.60;;
487;SDS011;16586;48.976;9.584;2022-09-12T02:33:31;2.55;;;2.35;;
487;SDS011;16586;48.976;9.584;2022-09-12T02:36:07;3.40;;;3.20;;
487;SDS011;16586;48.976;9.584;2022-09-12T02:38:41;2.80;;;2.60;;
487;SDS011;16586;48.976;9.584;2022-09-12T02:41:10;3.30;;;2.80;;
487;SDS011;16586;48.976;9.584;2022-09-12T02:43:40;2.60;;;2.40;;
487;SDS011;16586;48.976;9.584;2022-09-12T02:46:09;2.60;;;2.40;;
487;SDS011;16586;48.976;9.584;2022-09-12T02:48:41;2.80;;;2.60;;
487;SDS011;16586;48.976;9.584;2022-09-12T02:51:09;2.70;;;2.50;;
487;SDS011;16586;48.976;9.584;2022-09-12T02:53:39;2.90;;;2.70;;
487;SDS011;16586;48.976;9.584;2022-09-12T02:56:09;3.00;;;2.80;;
487;SDS011;16586;48.976;9.584;2022-09-12T02:58:42;2.70;;;2.50;;
487;SDS011;16586;48.976;9.584;2022-09-12T03:01:10;2.90;;;2.70;;
487;SDS011;16586;48.976;9.584;2022-09-12T03:03:51;2.95;;;2.75;;
487;SDS011;16586;48.976;9.584;2022-09-12T03:06:36;2.80;;;2.60;;
487;SDS011;16586;48.976;9.584;2022-09-12T03:09:11;2.90;;;2.70;;
487;SDS011;16586;48.976;9.584;2022-09-12T03:14:38;2.60;;;2.50;;
487;SDS011;16586;48.976;9.584;2022-09-12T03:17:26;3.00;;;2.80;;
487;SDS011;16586;48.976;9.584;2022-09-12T03:20:04;2.80;;;2.60;;
487;SDS011;16586;48.976;9.584;2022-09-12T03:22:38;2.60;;;2.40;;
487;SDS011;16586;48.976;9.584;2022-09-12T03:25:15;2.95;;;2.75;;
487;SDS011;16586;48.976;9.584;2022-09-12T03:27:47;2.92;;;2.72;;
487;SDS011;16586;48.976;9.584;2022-09-12T03:30:19;3.08;;;2.85;;
487;SDS011;16586;48.976;9.584;2022-09-12T03:32:47;3.33;;;3.13;;
487;SDS011;16586;48.976;9.584;2022-09-12T03:35:17;2.75;;;2.55;;
487;SDS011;16586;48.976;9.584;2022-09-12T03:37:46;3.70;;;3.15;;
487;SDS011;16586;48.976;9.584;2022-09-12T03:40:13;3.20;;;3.00;;
487;SDS011;16586;48.976;9.584;2022-09-12T03:42:41;3.08;;;2.88;;
487;SDS011;16586;48.976;9.584;2022-09-12T03:45:08;3.00;;;2.80;;
487;SDS011;16586;48.976;9.584;2022-09-12T03:47:36;3.30;;;3.10;;
487;SDS011;16586;48.976;9.584;2022-09-12T03:50:03;2.80;;;2.60;;
487;SDS011;16586;48.976;9.584;2022-09-12T03:52:33;3.30;;;2.97;;
487;SDS011;16586;48.976;9.584;2022-09-12T03:55:00;3.30;;;3.10;;
487;SDS011;16586;48.976;9.584;2022-09-12T03:57:28;3.30;;;3.10;;
487;SDS011;16586;48.976;9.584;2022-09-12T03:59:55;2.88;;;2.67;;
487;SDS011;16586;48.976;9.584;2022-09-12T04:02:22;3.17;;;2.92;;
487;SDS011;16586;48.976;9.584;2022-09-12T04:04:49;3.55;;;3.35;;
487;SDS011;16586;48.976;9.584;2022-09-12T04:07:16;3.60;;;3.40;;
487;SDS011;16586;48.976;9.584;2022-09-12T04:09:44;3.25;;;3.05;;
487;SDS011;16586;48.976;9.584;2022-09-12T04:12:11;3.20;;;3.00;;
487;SDS011;16586;48.976;9.584;2022-09-12T04:14:38;3.60;;;3.40;;
487;SDS011;16586;48.976;9.584;2022-09-12T04:17:06;3.20;;;3.00;;
487;SDS011;16586;48.976;9.584;2022-09-12T04:19:33;2.83;;;2.63;;
487;SDS011;16586;48.976;9.584;2022-09-12T04:21:59;3.03;;;2.90;;
487;SDS011;16586;48.976;9.584;2022-09-12T04:24:26;3.30;;;3.10;;
487;SDS011;16586;48.976;9.584;2022-09-12T04:26:55;3.00;;;2.80;;
487;SDS011;16586;48.976;9.584;2022-09-12T04:29:22;3.53;;;3.40;;
487;SDS011;16586;48.976;9.584;2022-09-12T04:31:49;2.83;;;2.63;;
487;SDS011;16586;48.976;9.584;2022-09-12T04:34:16;3.40;;;3.20;;
487;SDS011;16586;48.976;9.584;2022-09-12T04:36:43;2.95;;;2.75;;
487;SDS011;16586;48.976;9.584;2022-09-12T04:39:10;3.55;;;3.40;;
487;SDS011;16586;48.976;9.584;2022-09-12T04:41:38;3.20;;;3.00;;
487;SDS011;16586;48.976;9.584;2022-09-12T04:44:07;3.50;;;3.30;;
487;SDS011;16586;48.976;9.584;2022-09-12T04:46:38;3.40;;;3.20;;
487;SDS011;16586;48.976;9.584;2022-09-12T04:49:07;3.50;;;3.30;;
487;SDS011;16586;48.976;9.584;2022-09-12T04:51:35;3.20;;;3.00;;
487;SDS011;16586;48.976;9.584;2022-09-12T04:54:05;3.20;;;3.00;;
487;SDS011;16586;48.976;9.584;2022-09-12T04:56:35;3.70;;;3.50;;
487;SDS011;16586;48.976;9.584;2022-09-12T04:59:03;3.10;;;2.65;;
487;SDS011;16586;48.976;9.584;2022-09-12T05:01:32;2.92;;;2.72;;
487;SDS011;16586;48.976;9.584;2022-09-12T05:03:59;3.70;;;3.50;;
487;SDS011;16586;48.976;9.584;2022-09-12T05:06:28;3.50;;;3.30;;
487;SDS011;16586;48.976;9.584;2022-09-12T05:08:56;3.10;;;2.90;;
487;SDS011;16586;48.976;9.584;2022-09-12T05:11:24;2.85;;;2.65;;
487;SDS011;16586;48.976;9.584;2022-09-12T05:13:54;2.78;;;2.58;;
487;SDS011;16586;48.976;9.584;2022-09-12T05:16:21;3.50;;;2.90;;
487;SDS011;16586;48.976;9.584;2022-09-12T05:18:51;3.40;;;3.20;;
487;SDS011;16586;48.976;9.584;2022-09-12T05:21:19;3.33;;;3.13;;
487;SDS011;16586;48.976;9.584;2022-09-12T05:23:49;3.65;;;3.45;;
487;SDS011;16586;48.976;9.584;2022-09-12T05:26:16;3.75;;;3.55;;
487;SDS011;16586;48.976;9.584;2022-09-12T05:28:44;3.10;;;2.90;;
487;SDS011;16586;48.976;9.584;2022-09-12T05:31:13;3.15;;;2.95;;
487;SDS011;16586;48.976;9.584;2022-09-12T05:33:42;3.65;;;3.45;;
487;SDS011;16586;48.976;9.584;2022-09-12T05:36:12;3.40;;;3.20;;
487;SDS011;16586;48.976;9.584;2022-09-12T05:38:41;3.20;;;3.05;;
487;SDS011;16586;48.976;9.584;2022-09-12T05:41:10;3.60;;;3.10;;
487;SDS011;16586;48.976;9.584;2022-09-12T05:43:38;3.08;;;2.88;;
487;SDS011;16586;48.976;9.584;2022-09-12T05:46:07;2.70;;;2.50;;
487;SDS011;16586;48.976;9.584;2022-09-12T05:48:37;2.80;;;2.60;;
487;SDS011;16586;48.976;9.584;2022-09-12T05:51:06;3.17;;;2.97;;
487;SDS011;16586;48.976;9.584;2022-09-12T05:53:35;3.60;;;3.40;;
487;SDS011;16586;48.976;9.584;2022-09-12T05:56:03;3.05;;;2.85;;
487;SDS011;16586;48.976;9.584;2022-09-12T05:58:32;3.30;;;3.10;;
487;SDS011;16586;48.976;9.584;2022-09-12T06:01:00;3.00;;;2.90;;
487;SDS011;16586;48.976;9.584;2022-09-12T06:03:28;3.45;;;3.25;;
487;SDS011;16586;48.976;9.584;2022-09-12T06:05:55;3.35;;;3.15;;
487;SDS011;16586;48.976;9.584;2022-09-12T06:08:22;3.28;;;3.08;;
487;SDS011;16586;48.976;9.584;2022-09-12T06:10:50;3.03;;;2.83;;
487;SDS011;16586;48.976;9.584;2022-09-12T06:13:23;3.33;;;3.13;;
487;SDS011;16586;48.976;9.584;2022-09-12T06:15:50;3.15;;;2.95;;
487;SDS011;16586;48.976;9.584;2022-09-12T06:18:18;3.47;;;3.28;;
487;SDS011;16586;48.976;9.584;2022-09-12T06:20:45;3.33;;;2.75;;
487;SDS011;16586;48.976;9.584;2022-09-12T06:23:12;3.08;;;2.88;;
487;SDS011;16586;48.976;9.584;2022-09-12T06:25:44;3.45;;;3.25;;
487;SDS011;16586;48.976;9.584;2022-09-12T06:28:14;3.08;;;2.88;;
487;SDS011;16586;48.976;9.584;2022-09-12T06:30:41;3.25;;;3.05;;
487;SDS011;16586;48.976;9.584;2022-09-12T06:33:08;2.67;;;2.47;;
487;SDS011;16586;48.976;9.584;2022-09-12T06:35:35;2.90;;;2.70;;
487;SDS011;16586;48.976;9.584;2022-09-12T06:38:02;3.17;;;2.97;;
487;SDS011;16586;48.976;9.584;2022-09-12T06:40:30;3.00;;;2.80;;
487;SDS011;16586;48.976;9.584;2022-09-12T06:42:57;2.88;;;2.67;;
487;SDS011;16586;48.976;9.584;2022-09-12T06:45:25;3.10;;;2.90;;
487;SDS011;16586;48.976;9.584;2022-09-12T06:47:53;2.90;;;2.70;;
487;SDS011;16586;48.976;9.584;2022-09-12T06:50:20;3.00;;;2.80;;
487;SDS011;16586;48.976;9.584;2022-09-12T06:52:48;2.85;;;2.65;;
487;SDS011;16586;48.976;9.584;2022-09-12T06:55:15;2.92;;;2.67;;
487;SDS011;16586;48.976;9.584;2022-09-12T06:57:42;3.20;;;3.00;;
487;SDS011;16586;48.976;9.584;2022-09-12T07:00:09;3.50;;;3.30;;
487;SDS011;16586;48.976;9.584;2022-09-12T07:02:39;3.40;;;3.20;;
487;SDS011;16586;48.976;9.584;2022-09-12T07:05:06;3.13;;;2.92;;
487;SDS011;16586;48.976;9.584;2022-09-12T07:07:34;3.20;;;3.00;;
487;SDS011;16586;48.976;9.584;2022-09-12T07:10:02;3.38;;;3.17;;
487;SDS011;16586;48.976;9.584;2022-09-12T07:12:30;3.38;;;3.17;;
487;SDS011;16586;48.976;9.584;2022-09-12T07:14:57;3.37;;;3.17;;
487;SDS011;16586;48.976;9.584;2022-09-12T07:17:25;3.55;;;3.35;;
487;SDS011;16586;48.976;9.584;2022-09-12T07:19:53;3.47;;;3.33;;
487;SDS011;16586;48.976;9.584;2022-09-12T07:22:20;3.70;;;3.50;;
487;SDS011;16586;48.976;9.584;2022-09-12T07:24:47;3.90;;;3.70;;
487;SDS011;16586;48.976;9.584;2022-09-12T07:27:14;3.50;;;3.30;;
487;SDS011;16586;48.976;9.584;2022-09-12T07:29:41;3.75;;;3.55;;
487;SDS011;16586;48.976;9.584;2022-09-12T07:32:08;3.40;;;3.20;;
487;SDS011;16586;48.976;9.584;2022-09-12T07:34:36;3.80;;;3.60;;
487;SDS011;16586;48.976;9.584;2022-09-12T07:37:04;4.00;;;3.80;;
487;SDS011;16586;48.976;9.584;2022-09-12T07:39:31;3.85;;;3.65;;
487;SDS011;16586;48.976;9.584;2022-09-12T07:41:58;3.30;;;3.10;;
487;SDS011;16586;48.976;9.584;2022-09-12T07:44:25;3.72;;;3.53;;
487;SDS011;16586;48.976;9.584;2022-09-12T07:46:53;3.80;;;3.60;;
487;SDS011;16586;48.976;9.584;2022-09-12T07:49:20;3.53;;;3.33;;
487;SDS011;16586;48.976;9.584;2022-09-12T07:51:47;3.97;;;3.78;;
487;SDS011;16586;48.976;9.584;2022-09-12T07:54:15;3.65;;;3.45;;
487;SDS011;16586;48.976;9.584;2022-09-12T07:56:42;3.78;;;3.58;;
487;SDS011;16586;48.976;9.584;2022-09-12T07:59:09;3.35;;;3.15;;
487;SDS011;16586;48.976;9.584;2022-09-12T08:01:37;3.47;;;3.28;;
487;SDS011;16586;48.976;9.584;2022-09-12T08:04:05;3.03;;;2.83;;
487;SDS011;16586;48.976;9.584;2022-09-12T08:06:32;4.00;;;3.10;;
487;SDS011;16586;48.976;9.584;2022-09-12T08:09:01;3.00;;;2.80;;
487;SDS011;16586;48.976;9.584;2022-09-12T08:11:30;3.42;;;3.22;;
487;SDS011;16586;48.976;9.584;2022-09-12T08:13:57;3.20;;;3.00;;
487;SDS011;16586;48.976;9.584;2022-09-12T08:16:27;2.90;;;2.70;;
487;SDS011;16586;48.976;9.584;2022-09-12T08:18:56;3.30;;;3.00;;
487;SDS011;16586;48.976;9.584;2022-09-12T08:21:24;3.35;;;3.15;;
487;SDS011;16586;48.976;9.584;2022-09-12T08:23:53;3.13;;;2.92;;
487;SDS011;16586;48.976;9.584;2022-09-12T08:26:21;3.30;;;3.10;;
487;SDS011;16586;48.976;9.584;2022-09-12T08:28:50;3.20;;;3.00;;
487;SDS011;16586;48.976;9.584;2022-09-12T08:31:18;3.37;;;3.17;;
487;SDS011;16586;48.976;9.584;2022-09-12T08:33:45;3.10;;;2.90;;
487;SDS011;16586;48.976;9.584;2022-09-12T08:36:13;2.70;;;2.50;;
487;SDS011;16586;48.976;9.584;2022-09-12T08:38:42;3.10;;;2.90;;
487;SDS011;16586;48.976;9.584;2022-09-12T08:41:11;2.70;;;2.50;;
487;SDS011;16586;48.976;9.584;2022-09-12T08:43:56;3.00;;;2.80;;
487;SDS011;16586;48.976;9.584;2022-09-12T08:46:35;3.17;;;2.90;;
487;SDS011;16586;48.976;9.584;2022-09-12T08:49:06;2.40;;;2.20;;
487;SDS011;16586;48.976;9.584;2022-09-12T08:51:37;2.60;;;2.40;;
487;SDS011;16586;48.976;9.584;2022-09-12T08:54:08;3.10;;;2.60;;
487;SDS011;16586;48.976;9.584;2022-09-12T08:56:42;2.60;;;2.40;;
487;SDS011;16586;48.976;9.584;2022-09-12T08:59:11;2.70;;;2.50;;
487;SDS011;16586;48.976;9.584;2022-09-12T09:01:39;2.53;;;2.35;;
487;SDS011;16586;48.976;9.584;2022-09-12T09:04:18;2.28;;;2.08;;
487;SDS011;16586;48.976;9.584;2022-09-12T09:07:11;2.20;;;2.00;;
487;SDS011;16586;48.976;9.584;2022-09-12T09:09:53;2.35;;;2.15;;
487;SDS011;16586;48.976;9.584;2022-09-12T09:12:34;2.65;;;2.10;;
487;SDS011;16586;48.976;9.584;2022-09-12T09:15:12;2.30;;;2.17;;
487;SDS011;16586;48.976;9.584;2022-09-12T09:17:49;2.40;;;2.20;;
487;SDS011;16586;48.976;9.584;2022-09-12T09:20:25;2.10;;;1.70;;
487;SDS011;16586;48.976;9.584;2022-09-12T09:22:58;1.90;;;1.80;;
487;SDS011;16586;48.976;9.584;2022-09-12T09:25:37;1.70;;;1.60;;
487;SDS011;16586;48.976;9.584;2022-09-12T09:28:12;1.60;;;1.58;;
487;SDS011;16586;48.976;9.584;2022-09-12T09:30:45;1.48;;;1.30;;
487;SDS011;16586;48.976;9.584;2022-09-12T09:33:15;1.58;;;1.40;;
487;SDS011;16586;48.976;9.584;2022-09-12T09:35:47;1.60;;;1.30;;
487;SDS011;16586;48.976;9.584;2022-09-12T09:38:22;1.70;;;1.65;;
487;SDS011;16586;48.976;9.584;2022-09-12T09:41:06;1.95;;;1.40;;
487;SDS011;16586;48.976;9.584;2022-09-12T09:43:55;1.88;;;1.42;;
487;SDS011;16586;48.976;9.584;2022-09-12T09:46:24;2.08;;;1.35;;
487;SDS011;16586;48.976;9.584;2022-09-12T09:48:52;1.38;;;1.10;;
487;SDS011;16586;48.976;9.584;2022-09-12T09:51:22;1.50;;;1.30;;
487;SDS011;16586;48.976;9.584;2022-09-12T09:53:53;1.70;;;1.40;;
487;SDS011;16586;48.976;9.584;2022-09-12T09:56:26;1.60;;;1.40;;
487;SDS011;16586;48.976;9.584;2022-09-12T09:59:06;1.98;;;1.50;;
487;SDS011;16586;48.976;9.584;2022-09-12T10:01:35;2.08;;;1.50;;
487;SDS011;16586;48.976;9.584;2022-09-12T10:04:02;1.40;;;1.20;;
487;SDS011;16586;48.976;9.584;2022-09-12T10:06:30;1.42;;;1.20;;
487;SDS011;16586;48.976;9.584;2022-09-12T10:09:05;1.80;;;1.10;;
487;SDS011;16586;48.976;9.584;2022-09-12T10:11:42;1.80;;;1.13;;
487;SDS011;16586;48.976;9.584;2022-09-12T10:14:24;1.70;;;1.20;;
487;SDS011;16586;48.976;9.584;2022-09-12T10:17:03;1.60;;;1.30;;
487;SDS011;16586;48.976;9.584;2022-09-12T10:19:51;1.40;;;1.20;;
487;SDS011;16586;48.976;9.584;2022-09-12T10:22:19;1.53;;;0.90;;
487;SDS011;16586;48.976;9.584;2022-09-12T10:24:48;1.42;;;1.15;;
487;SDS011;16586;48.976;9.584;2022-09-12T10:27:18;1.40;;;1.00;;
487;SDS011;16586;48.976;9.584;2022-09-12T10:29:48;1.50;;;1.10;;
487;SDS011;16586;48.976;9.584;2022-09-12T10:32:21;1.60;;;1.30;;
487;SDS011;16586;48.976;9.584;2022-09-12T10:34:54;1.30;;;1.00;;
487;SDS011;16586;48.976;9.584;2022-09-12T10:37:25;1.30;;;1.20;;
487;SDS011;16586;48.976;9.584;2022-09-12T10:39:57;1.80;;;1.20;;
487;SDS011;16586;48.976;9.584;2022-09-12T10:42:41;1.50;;;1.05;;
487;SDS011;16586;48.976;9.584;2022-09-12T10:45:20;1.40;;;1.17;;
487;SDS011;16586;48.976;9.584;2022-09-12T10:47:54;1.20;;;1.00;;
487;SDS011;16586;48.976;9.584;2022-09-12T10:50:27;1.40;;;1.10;;
487;SDS011;16586;48.976;9.584;2022-09-12T10:53:11;1.40;;;1.15;;
487;SDS011;16586;48.976;9.584;2022-09-12T10:55:40;1.30;;;0.93;;
487;SDS011;16586;48.976;9.584;2022-09-12T10:58:24;1.50;;;1.10;;
487;SDS011;16586;48.976;9.584;2022-09-12T11:01:02;1.58;;;1.00;;
487;SDS011;16586;48.976;9.584;2022-09-12T11:03:38;1.20;;;0.93;;
487;SDS011;16586;48.976;9.584;2022-09-12T11:06:16;1.30;;;0.90;;
487;SDS011;16586;48.976;9.584;2022-09-12T11:08:53;1.10;;;0.73;;
487;SDS011;16586;48.976;9.584;2022-09-12T11:11:32;1.30;;;1.03;;
487;SDS011;16586;48.976;9.584;2022-09-12T11:14:14;1.15;;;0.95;;
487;SDS011;16586;48.976;9.584;2022-09-12T11:16:51;1.10;;;0.80;;
487;SDS011;16586;48.976;9.584;2022-09-12T11:19:32;1.30;;;0.82;;
487;SDS011;16586;48.976;9.584;2022-09-12T11:22:35;1.30;;;0.70;;
487;SDS011;16586;48.976;9.584;2022-09-12T11:25:13;1.20;;;0.93;;
487;SDS011;16586;48.976;9.584;2022-09-12T11:30:48;1.50;;;1.00;;
487;SDS011;16586;48.976;9.584;2022-09-12T11:33:27;1.35;;;0.95;;
487;SDS011;16586;48.976;9.584;2022-09-12T11:36:09;2.30;;;0.90;;
487;SDS011;16586;48.976;9.584;2022-09-12T11:38:57;1.30;;;0.80;;
487;SDS011;16586;48.976;9.584;2022-09-12T11:41:29;1.40;;;0.90;;
487;SDS011;16586;48.976;9.584;2022-09-12T11:43:59;1.50;;;1.00;;
487;SDS011;16586;48.976;9.584;2022-09-12T11:46:33;1.20;;;0.98;;
487;SDS011;16586;48.976;9.584;2022-09-12T11:49:03;1.40;;;1.02;;
487;SDS011;16586;48.976;9.584;2022-09-12T11:51:42;1.10;;;0.90;;
487;SDS011;16586;48.976;9.584;2022-09-12T11:54:20;1.52;;;1.50;;
487;SDS011;16586;48.976;9.584;2022-09-12T11:56:52;1.60;;;1.00;;
487;SDS011;16586;48.976;9.584;2022-09-12T11:59:34;1.30;;;0.98;;
487;SDS011;16586;48.976;9.584;2022-09-12T12:02:10;1.10;;;0.80;;
487;SDS011;16586;48.976;9.584;2022-09-12T12:04:42;1.10;;;0.75;;
487;SDS011;16586;48.976;9.584;2022-09-12T12:07:22;1.10;;;0.60;;
487;SDS011;16586;48.976;9.584;2022-09-12T12:09:49;1.00;;;0.57;;
487;SDS011;16586;48.976;9.584;2022-09-12T12:12:20;1.10;;;0.75;;
487;SDS011;16586;48.976;9.584;2022-09-12T12:14:50;1.10;;;0.70;;
487;SDS011;16586;48.976;9.584;2022-09-12T12:17:19;1.00;;;0.70;;
487;SDS011;16586;48.976;9.584;2022-09-12T12:19:55;1.60;;;0.95;;
487;SDS011;16586;48.976;9.584;2022-09-12T12:22:25;1.40;;;0.90;;
487;SDS011;16586;48.976;9.584;2022-09-12T12:24:53;1.38;;;0.82;;
487;SDS011;16586;48.976;9.584;2022-09-12T12:36:28;1.25;;;0.80;;
487;SDS011;16586;48.976;9.584;2022-09-12T12:39:53;1.17;;;0.70;;
487;SDS011;16586;48.976;9.584;2022-09-12T12:48:27;1.20;;;0.70;;
487;SDS011;16586;48.976;9.584;2022-09-12T12:51:16;1.20;;;0.80;;
487;SDS011;16586;48.976;9.584;2022-09-12T12:53:52;1.20;;;0.80;;
487;SDS011;16586;48.976;9.584;2022-09-12T12:56:28;1.15;;;0.60;;
487;SDS011;16586;48.976;9.584;2022-09-12T12:59:01;1.70;;;0.70;;
487;SDS011;16586;48.976;9.584;2022-09-12T13:01:30;1.10;;;0.70;;
487;SDS011;16586;48.976;9.584;2022-09-12T13:04:04;1.20;;;0.70;;
487;SDS011;16586;48.976;9.584;2022-09-12T13:06:39;1.20;;;0.80;;
487;SDS011;16586;48.976;9.584;2022-09-12T13:09:08;1.20;;;0.70;;
487;SDS011;16586;48.976;9.584;2022-09-12T13:11:54;1.50;;;0.60;;
487;SDS011;16586;48.976;9.584;2022-09-12T13:17:23;1.40;;;0.70;;
487;SDS011;16586;48.976;9.584;2022-09-12T13:19:53;1.48;;;0.90;;
487;SDS011;16586;48.976;9.584;2022-09-12T13:22:37;1.13;;;0.80;;
487;SDS011;16586;48.976;9.584;2022-09-12T13:25:20;1.20;;;0.77;;
487;SDS011;16586;48.976;9.584;2022-09-12T13:28:01;1.00;;;0.60;;
487;SDS011;16586;48.976;9.584;2022-09-12T13:30:33;1.00;;;0.55;;
487;SDS011;16586;48.976;9.584;2022-09-12T13:33:08;1.20;;;0.70;;
487;SDS011;16586;48.976;9.584;2022-09-12T13:35:45;1.50;;;1.10;;
487;SDS011;16586;48.976;9.584;2022-09-12T13:38:25;1.40;;;1.08;;
487;SDS011;16586;48.976;9.584;2022-09-12T13:41:04;1.55;;;1.20;;
487;SDS011;16586;48.976;9.584;2022-09-12T13:43:52;2.00;;;1.20;;
487;SDS011;16586;48.976;9.584;2022-09-12T13:46:20;1.50;;;0.90;;
487;SDS011;16586;48.976;9.584;2022-09-12T13:48:54;2.07;;;1.53;;
487;SDS011;16586;48.976;9.584;2022-09-12T13:51:22;2.47;;;1.85;;
487;SDS011;16586;48.976;9.584;2022-09-12T13:53:51;3.40;;;3.20;;
487;SDS011;16586;48.976;9.584;2022-09-12T13:56:20;68.07;;;64.80;;
487;SDS011;16586;48.976;9.584;2022-09-12T13:58:52;362.40;;;345.10;;
487;SDS011;16586;48.976;9.584;2022-09-12T14:01:21;454.95;;;433.25;;
487;SDS011;16586;48.976;9.584;2022-09-12T14:03:49;954.97;;;909.45;;
487;SDS011;16586;48.976;9.584;2022-09-12T14:06:44;644.95;;;614.20;;
487;SDS011;16586;48.976;9.584;2022-09-12T14:09:14;666.50;;;634.73;;
487;SDS011;16586;48.976;9.584;2022-09-12T14:11:47;666.00;;;634.25;;
487;SDS011;16586;48.976;9.584;2022-09-12T14:14:18;1088.38;;;999.90;;
487;SDS011;16586;48.976;9.584;2022-09-12T14:16:53;1119.18;;;999.90;;
487;SDS011;16586;48.976;9.584;2022-09-12T14:19:20;1060.20;;;999.90;;
487;SDS011;16586;48.976;9.584;2022-09-12T14:21:51;935.65;;;891.05;;
487;SDS011;16586;48.976;9.584;2022-09-12T14:24:18;934.05;;;889.53;;
487;SDS011;16586;48.976;9.584;2022-09-12T14:26:47;847.50;;;807.10;;
487;SDS011;16586;48.976;9.584;2022-09-12T14:29:18;885.45;;;843.25;;
487;SDS011;16586;48.976;9.584;2022-09-12T14:31:45;927.33;;;883.13;;
487;SDS011;16586;48.976;9.584;2022-09-12T14:34:13;1221.03;;;999.90;;
487;SDS011;16586;48.976;9.584;2022-09-12T14:36:42;1544.28;;;999.90;;
487;SDS011;16586;48.976;9.584;2022-09-12T14:39:15;1094.07;;;999.90;;
487;SDS011;16586;48.976;9.584;2022-09-12T14:41:47;1051.70;;;999.17;;
487;SDS011;16586;48.976;9.584;2022-09-12T14:44:16;1025.20;;;976.30;;
487;SDS011;16586;48.976;9.584;2022-09-12T14:46:46;909.47;;;866.10;;
487;SDS011;16586;48.976;9.584;2022-09-12T14:49:15;820.65;;;781.53;;
487;SDS011;16586;48.976;9.584;2022-09-12T14:51:46;756.25;;;720.17;;
487;SDS011;16586;48.976;9.584;2022-09-12T14:54:37;480.87;;;457.93;;
487;SDS011;16586;48.976;9.584;2022-09-12T14:57:16;408.40;;;388.90;;
487;SDS011;16586;48.976;9.584;2022-09-12T15:00:10;113.30;;;107.85;;
487;SDS011;16586;48.976;9.584;2022-09-12T15:02:46;2.60;;;2.40;;
487;SDS011;16586;48.976;9.584;2022-09-12T15:05:15;2.00;;;1.50;;
487;SDS011;16586;48.976;9.584;2022-09-12T15:07:50;1.50;;;1.13;;
487;SDS011;16586;48.976;9.584;2022-09-12T15:10:20;1.02;;;0.60;;
487;SDS011;16586;48.976;9.584;2022-09-12T15:12:56;0.90;;;0.50;;
487;SDS011;16586;48.976;9.584;2022-09-12T15:15:42;0.80;;;0.40;;
487;SDS011;16586;48.976;9.584;2022-09-12T15:18:10;1.15;;;0.60;;
487;SDS011;16586;48.976;9.584;2022-09-12T15:20:38;0.90;;;0.50;;
487;SDS011;16586;48.976;9.584;2022-09-12T15:23:09;1.00;;;0.50;;
487;SDS011;16586;48.976;9.584;2022-09-12T15:25:44;0.85;;;0.47;;
487;SDS011;16586;48.976;9.584;2022-09-12T15:28:12;0.90;;;0.40;;
487;SDS011;16586;48.976;9.584;2022-09-12T15:30:44;1.30;;;0.80;;
487;SDS011;16586;48.976;9.584;2022-09-12T15:33:13;0.80;;;0.40;;
487;SDS011;16586;48.976;9.584;2022-09-12T15:35:41;1.00;;;0.50;;
487;SDS011;16586;48.976;9.584;2022-09-12T15:38:08;0.90;;;0.40;;
487;SDS011;16586;48.976;9.584;2022-09-12T15:40:35;0.90;;;0.50;;
487;SDS011;16586;48.976;9.584;2022-09-12T15:43:02;1.10;;;0.40;;
487;SDS011;16586;48.976;9.584;2022-09-12T15:45:30;1.00;;;0.50;;
487;SDS011;16586;48.976;9.584;2022-09-12T15:47:59;0.90;;;0.40;;
487;SDS011;16586;48.976;9.584;2022-09-12T15:50:28;1.00;;;0.60;;
487;SDS011;16586;48.976;9.584;2022-09-12T15:52:55;1.10;;;0.60;;
487;SDS011;16586;48.976;9.584;2022-09-12T15:55:24;0.90;;;0.50;;
487;SDS011;16586;48.976;9.584;2022-09-12T15:57:54;0.90;;;0.40;;
487;SDS011;16586;48.976;9.584;2022-09-12T16:00:21;0.80;;;0.40;;
487;SDS011;16586;48.976;9.584;2022-09-12T16:02:49;1.00;;;0.40;;
487;SDS011;16586;48.976;9.584;2022-09-12T16:05:19;0.90;;;0.40;;